Time;durP1;ratioP1;P1;durP2;ratioP2;P2;SDS_P1;SDS_P2;PMS_P1;PMS_P2;Temp;Humidity;BMP_temperature;BMP_pressure;BME280_temperature;BME280_humidity;BME280_pressure;Samples;Min_cycle;Max_cycle;Signal;HPM_P1;HPM_P2
2021/12/04 00:01:51;;;;;;;4.10;1.38;;;8.00;99.90;;;;;;5049442;28;20040;-77
2021/12/04 00:04:25;;;;;;;3.30;1.05;;;8.00;99.90;;;;;;5049468;28;20471;-77
2021/12/04 00:06:51;;;;;;;4.80;1.15;;;8.00;99.90;;;;;;5049364;28;20059;-77
2021/12/04 00:09:19;;;;;;;4.93;0.88;;;8.00;99.80;;;;;;5047767;28;20028;-77
2021/12/04 00:12:00;;;;;;;4.15;1.10;;;8.00;99.80;;;;;;5031033;28;20049;-77
2021/12/04 00:14:26;;;;;;;4.00;1.50;;;8.00;99.70;;;;;;5049021;28;20156;-77
2021/12/04 00:16:52;;;;;;;6.25;1.60;;;7.90;99.70;;;;;;5047369;28;20127;-77
2021/12/04 00:19:18;;;;;;;;;;;8.00;99.70;;;;;;5047748;28;20021;-77
2021/12/04 00:21:44;;;;;;;3.13;0.90;;;7.90;99.70;;;;;;5048705;28;20046;-77
2021/12/04 00:24:10;;;;;;;4.75;1.55;;;7.90;99.70;;;;;;5047183;28;20059;-77
2021/12/04 00:26:36;;;;;;;3.38;1.00;;;7.90;99.70;;;;;;5047203;28;20554;-77
2021/12/04 00:29:02;;;;;;;3.75;1.27;;;7.80;99.70;;;;;;5048729;28;20147;-77
2021/12/04 00:31:28;;;;;;;4.22;1.42;;;7.80;99.80;;;;;;5047604;28;20078;-77
2021/12/04 00:33:54;;;;;;;4.90;1.25;;;7.70;99.80;;;;;;5047243;28;20449;-77
2021/12/04 00:49:49;;;;;;;5.35;1.00;;;7.50;99.90;;;;;;5047820;28;20067;-77
2021/12/04 00:52:15;;;;;;;6.32;1.63;;;7.50;99.90;;;;;;5048314;28;20048;-77
2021/12/04 00:54:43;;;;;;;4.95;1.08;;;7.50;99.90;;;;;;5046969;28;20029;-77
2021/12/04 00:57:09;;;;;;;3.97;0.93;;;7.40;99.90;;;;;;5047878;28;20396;-77
2021/12/04 00:59:34;;;;;;;6.28;0.93;;;7.40;99.90;;;;;;5049069;28;20025;-77
2021/12/04 01:02:01;;;;;;;8.75;1.45;;;7.40;99.90;;;;;;5048226;28;20036;-77
2021/12/04 01:04:27;;;;;;;4.90;1.58;;;7.40;99.90;;;;;;5047325;28;20056;-77
2021/12/04 01:06:53;;;;;;;7.50;1.50;;;7.40;99.90;;;;;;5048297;28;20068;-76
2021/12/04 01:09:21;;;;;;;4.25;1.23;;;7.30;99.90;;;;;;5048501;28;20032;-75
2021/12/04 01:11:47;;;;;;;2.85;0.93;;;7.30;99.90;;;;;;5048255;28;20033;-75
2021/12/04 01:14:16;;;;;;;3.80;1.13;;;7.30;99.90;;;;;;5047031;28;20090;-75
2021/12/04 01:16:43;;;;;;;4.45;1.08;;;7.20;99.90;;;;;;5047864;28;20044;-75
2021/12/04 01:19:09;;;;;;;3.45;0.75;;;7.20;99.90;;;;;;5048274;28;20033;-75
2021/12/04 01:21:36;;;;;;;8.63;1.00;;;7.10;99.90;;;;;;5046669;28;20053;-76
2021/12/04 01:24:02;;;;;;;6.20;1.00;;;7.00;99.90;;;;;;5046444;28;20033;-75
2021/12/04 01:26:28;;;;;;;13.23;1.98;;;7.00;99.90;;;;;;5046522;28;20468;-75
2021/12/04 01:28:54;;;;;;;5.18;1.25;;;6.90;99.90;;;;;;5047922;28;20070;-75
2021/12/04 01:31:20;;;;;;;8.73;1.15;;;6.80;99.90;;;;;;5047809;28;20055;-75
2021/12/04 01:33:46;;;;;;;3.45;0.68;;;6.80;99.90;;;;;;5047500;28;20080;-76
2021/12/04 01:36:12;;;;;;;6.68;1.35;;;6.70;99.90;;;;;;5047519;28;20488;-77
2021/12/04 01:38:38;;;;;;;9.13;1.73;;;6.70;99.90;;;;;;5046529;28;20102;-77
2021/12/04 01:41:04;;;;;;;17.88;2.13;;;6.60;99.90;;;;;;5047738;28;20036;-76
2021/12/04 01:43:30;;;;;;;8.35;1.83;;;6.60;99.90;;;;;;5029853;28;20033;-76
2021/12/04 01:45:57;;;;;;;12.70;1.90;;;6.50;99.80;;;;;;5047487;28;20055;-77
2021/12/04 01:48:23;;;;;;;9.65;1.17;;;6.50;99.80;;;;;;5046566;28;20032;-77
2021/12/04 01:50:49;;;;;;;;;;;6.40;99.80;;;;;;5048118;28;20029;-77
2021/12/04 01:53:15;;;;;;;8.45;1.55;;;6.40;99.80;;;;;;5029729;28;19920;-76
2021/12/04 01:55:41;;;;;;;9.13;1.25;;;6.40;99.70;;;;;;5047444;28;20475;-76
2021/12/04 01:58:07;;;;;;;7.30;1.20;;;6.30;99.70;;;;;;5046133;28;20028;-76
2021/12/04 02:00:37;;;;;;;5.32;1.58;;;6.30;99.70;;;;;;5029766;28;20043;-76
2021/12/04 02:03:04;;;;;;;15.23;1.48;;;6.30;99.60;;;;;;5047781;28;20033;-76
2021/12/04 02:05:30;;;;;;;11.90;1.35;;;6.30;99.60;;;;;;5047660;28;20071;-77
2021/12/04 02:07:56;;;;;;;10.50;2.08;;;6.20;99.60;;;;;;5050500;28;20422;-77
2021/12/04 02:10:22;;;;;;;8.70;1.90;;;6.10;99.50;;;;;;5051604;28;20025;-76
2021/12/04 02:12:49;;;;;;;5.00;1.20;;;6.10;99.60;;;;;;5051674;28;20029;-77
2021/12/04 02:15:15;;;;;;;;;;;6.10;99.70;;;;;;5034087;28;20026;-76
2021/12/04 02:17:45;;;;;;;9.90;1.40;;;6.10;99.50;;;;;;5050107;28;19912;-76
2021/12/04 02:20:34;;;;;;;7.47;2.15;;;6.10;99.40;;;;;;5050409;28;20025;-76
2021/12/04 02:23:01;;;;;;;11.60;1.75;;;6.00;99.40;;;;;;5050142;28;20491;-76
2021/12/04 02:25:27;;;;;;;14.55;1.48;;;6.00;99.30;;;;;;5051301;28;20025;-76
2021/12/04 02:27:53;;;;;;;;;;;5.90;99.30;;;;;;5051698;28;20438;-76
2021/12/04 02:30:25;;;;;;;11.43;1.70;;;5.90;99.20;;;;;;5050122;28;19915;-75
2021/12/04 02:32:51;;;;;;;6.45;1.38;;;5.80;99.10;;;;;;5051257;28;20085;-76
2021/12/04 02:35:18;;;;;;;9.68;1.58;;;5.80;99.10;;;;;;5050276;28;20032;-76
2021/12/04 02:37:45;;;;;;;6.82;1.63;;;5.80;99.00;;;;;;5051178;28;20139;-76
2021/12/04 02:40:14;;;;;;;10.38;1.52;;;5.80;99.00;;;;;;5051134;28;20025;-76
2021/12/04 02:42:41;;;;;;;8.50;1.45;;;5.70;98.90;;;;;;5049948;28;20025;-76
2021/12/04 02:45:09;;;;;;;13.60;2.20;;;5.70;98.90;;;;;;5033401;28;20098;-76
2021/12/04 02:47:36;;;;;;;9.38;1.38;;;5.60;98.80;;;;;;5051014;28;20483;-76
2021/12/04 02:50:05;;;;;;;8.00;1.40;;;5.60;98.80;;;;;;5050950;28;20545;-76
2021/12/04 02:52:32;;;;;;;7.05;2.00;;;5.60;98.80;;;;;;5050731;28;20029;-75
2021/12/04 02:54:58;;;;;;;6.57;1.63;;;5.50;98.80;;;;;;5050841;28;20047;-76
2021/12/04 02:57:23;;;;;;;6.13;1.33;;;5.50;98.80;;;;;;5050836;28;20375;-76
2021/12/04 02:59:50;;;;;;;13.82;2.00;;;5.50;98.70;;;;;;5049524;28;20551;-76
2021/12/04 03:02:21;;;;;;;10.93;1.17;;;5.40;98.70;;;;;;5050533;28;20062;-76
2021/12/04 03:05:01;;;;;;;7.82;1.27;;;5.40;98.70;;;;;;5050719;28;20118;-76
2021/12/04 03:07:27;;;;;;;10.60;1.27;;;5.40;98.70;;;;;;5049253;28;20427;-76
2021/12/04 03:09:53;;;;;;;12.75;2.63;;;5.40;98.70;;;;;;5049342;28;20021;-76
2021/12/04 03:12:23;;;;;;;7.50;1.38;;;5.30;98.60;;;;;;5050531;28;20044;-76
2021/12/04 03:14:53;;;;;;;6.47;1.55;;;5.30;98.60;;;;;;5050674;28;20106;-76
2021/12/04 03:17:21;;;;;;;4.95;1.67;;;5.30;98.60;;;;;;5050135;28;20044;-76
2021/12/04 03:19:50;;;;;;;11.52;2.13;;;5.30;98.60;;;;;;5049669;28;20091;-76
2021/12/04 03:22:17;;;;;;;5.28;1.20;;;5.20;98.60;;;;;;5050333;28;20017;-76
2021/12/04 03:24:43;;;;;;;7.07;1.63;;;5.20;98.60;;;;;;5050482;28;20079;-76
2021/12/04 03:27:09;;;;;;;5.95;0.90;;;5.20;98.60;;;;;;5048969;28;20409;-76
2021/12/04 03:29:41;;;;;;;6.50;1.20;;;5.20;98.60;;;;;;5050511;28;20033;-76
2021/12/04 03:42:34;;;;;;;5.20;1.48;;;5.10;98.60;;;;;;5048602;28;20036;-76
2021/12/04 03:45:00;;;;;;;8.43;1.67;;;5.10;98.60;;;;;;5048742;28;20518;-76
2021/12/04 03:47:26;;;;;;;6.70;1.08;;;5.00;98.60;;;;;;5049854;28;20114;-76
2021/12/04 03:49:51;;;;;;;9.13;1.05;;;5.00;98.60;;;;;;5015680;28;20121;-76
2021/12/04 03:52:17;;;;;;;7.20;0.85;;;5.00;98.50;;;;;;5031927;28;20029;-76
2021/12/04 03:54:43;;;;;;;4.65;1.15;;;5.00;98.50;;;;;;5048422;28;20033;-75
2021/12/04 03:57:12;;;;;;;6.65;1.05;;;5.00;98.50;;;;;;5049697;28;20124;-76
2021/12/04 03:59:40;;;;;;;7.28;1.50;;;5.00;98.60;;;;;;5048206;28;20119;-77
2021/12/04 04:02:09;;;;;;;6.03;1.20;;;4.90;98.50;;;;;;5048678;28;20082;-76
2021/12/04 04:04:36;;;;;;;5.03;0.60;;;5.00;98.50;;;;;;5049679;28;20021;-77
2021/12/04 04:07:02;;;;;;;3.30;0.50;;;4.90;98.50;;;;;;5048201;28;20552;-76
2021/12/04 04:09:28;;;;;;;4.10;1.40;;;4.90;98.50;;;;;;5049601;28;20049;-76
2021/12/04 04:11:54;;;;;;;2.42;0.57;;;4.90;98.70;;;;;;5048029;28;20025;-76
2021/12/04 04:14:20;;;;;;;3.10;0.57;;;4.90;98.50;;;;;;5049489;28;20031;-76
2021/12/04 04:16:46;;;;;;;3.35;0.40;;;4.90;98.50;;;;;;5049262;28;20430;-76
2021/12/04 04:19:12;;;;;;;4.25;0.75;;;4.80;98.50;;;;;;5049388;28;20060;-76
2021/12/04 04:21:40;;;;;;;6.30;1.42;;;4.80;98.50;;;;;;5049439;28;20114;-75
2021/12/04 04:24:10;;;;;;;2.05;0.82;;;4.80;98.50;;;;;;5049219;28;20395;-75
2021/12/04 04:26:37;;;;;;;7.38;0.82;;;4.80;98.50;;;;;;5049186;28;20025;-75
2021/12/04 04:29:07;;;;;;;2.67;0.80;;;4.80;98.60;;;;;;5047829;28;20020;-75
2021/12/04 04:31:35;;;;;;;5.63;0.63;;;4.80;98.60;;;;;;5047757;28;20054;-75
2021/12/04 04:34:05;;;;;;;8.35;0.93;;;4.80;98.70;;;;;;5047730;28;20037;-75
2021/12/04 04:39:58;;;;;;;2.60;0.40;;;4.80;98.60;;;;;;5049352;28;20087;-77
2021/12/04 04:58:27;;;;;;;6.55;1.05;;;4.90;98.60;;;;;;5048867;28;20040;-77
2021/12/04 05:12:25;;;;;;;2.97;0.50;;;4.90;98.60;;;;;;5025444;28;20091;-77
2021/12/04 05:14:58;;;;;;;4.43;0.75;;;5.00;98.60;;;;;;5043892;28;20033;-77
2021/12/04 05:17:52;;;;;;;5.32;0.70;;;5.10;98.40;;;;;;5048027;28;20071;-75
2021/12/04 05:20:33;;;;;;;1.80;0.40;;;5.20;98.30;;;;;;5048047;28;20028;-78
2021/12/04 05:23:00;;;;;;;3.47;0.68;;;5.20;98.30;;;;;;5047140;28;20124;-77
2021/12/04 05:25:26;;;;;;;2.55;0.63;;;5.30;98.20;;;;;;5046935;28;20494;-78
2021/12/04 05:27:52;;;;;;;;;;;5.30;98.10;;;;;;5048600;28;20032;-77
2021/12/04 05:30:18;;;;;;;3.38;0.65;;;5.30;98.00;;;;;;5047106;28;19909;-78
2021/12/04 05:32:43;;;;;;;3.00;0.57;;;5.30;97.90;;;;;;5048063;28;20029;-78
2021/12/04 05:35:09;;;;;;;2.58;0.57;;;5.30;97.80;;;;;;5048083;28;20242;-77
2021/12/04 05:37:35;;;;;;;0.82;0.45;;;5.20;97.70;;;;;;5030137;28;20120;-77
2021/12/04 05:40:01;;;;;;;3.97;0.55;;;5.20;97.70;;;;;;5048276;28;20048;-78
2021/12/04 05:42:26;;;;;;;2.80;0.32;;;5.10;97.60;;;;;;5046134;28;20025;-77
2021/12/04 05:44:53;;;;;;;2.65;0.30;;;5.10;97.70;;;;;;5030023;28;20415;-77
2021/12/04 05:47:32;;;;;;;3.47;0.55;;;5.10;97.80;;;;;;5030204;28;20036;-77
2021/12/04 05:50:11;;;;;;;4.22;0.60;;;5.10;97.80;;;;;;5032024;28;20032;-77
2021/12/04 05:52:52;;;;;;;4.05;1.05;;;5.10;97.80;;;;;;5046584;28;20037;-77
2021/12/04 05:55:20;;;;;;;1.15;0.73;;;5.10;97.80;;;;;;5017863;28;20033;-78
2021/12/04 05:57:46;;;;;;;4.50;0.52;;;5.10;97.80;;;;;;5046104;28;20043;-77
2021/12/04 06:00:20;;;;;;;5.95;0.50;;;5.10;97.70;;;;;;5046281;28;20025;-77
2021/12/04 06:02:46;;;;;;;0.45;0.10;;;5.00;97.60;;;;;;5046461;28;20071;-76
2021/12/04 06:05:13;;;;;;;2.20;0.55;;;5.00;97.60;;;;;;5046294;28;20051;-75
2021/12/04 06:07:39;;;;;;;6.13;1.35;;;4.90;97.60;;;;;;5046214;28;20033;-75
2021/12/04 06:10:06;;;;;;;3.60;0.60;;;4.90;97.60;;;;;;5029627;28;20426;-75
2021/12/04 06:12:32;;;;;;;2.60;0.30;;;4.80;97.70;;;;;;5046069;28;20025;-78
2021/12/04 06:14:58;;;;;;;3.20;0.60;;;4.80;97.70;;;;;;5047319;28;20372;-76
2021/12/04 06:17:25;;;;;;;;;;;4.70;97.70;;;;;;5046414;28;20040;-75
2021/12/04 06:22:42;;;;;;;4.80;0.65;;;4.60;97.80;;;;;;5047677;28;20399;-76
2021/12/04 06:25:13;;;;;;;4.15;0.75;;;4.50;97.80;;;;;;5046399;28;20025;-75
2021/12/04 06:27:40;;;;;;;6.32;1.10;;;4.50;97.90;;;;;;5046541;28;20033;-77
2021/12/04 06:30:10;;;;;;;2.20;0.85;;;4.50;98.00;;;;;;5045772;28;20052;-75
2021/12/04 06:32:36;;;;;;;2.47;0.68;;;4.50;98.10;;;;;;5046055;28;20056;-76
2021/12/04 06:35:05;;;;;;;6.47;1.27;;;4.50;98.30;;;;;;5047504;28;20037;-75
2021/12/04 06:37:30;;;;;;;4.57;0.60;;;4.50;98.20;;;;;;5045777;28;20025;-76
2021/12/04 06:39:56;;;;;;;11.35;1.10;;;4.60;98.20;;;;;;5046040;28;20388;-77
2021/12/04 06:42:23;;;;;;;2.65;0.55;;;4.50;98.20;;;;;;5012887;28;20132;-77
2021/12/04 06:44:51;;;;;;;4.38;0.60;;;4.50;98.30;;;;;;5045937;28;20441;-76
2021/12/04 06:47:17;;;;;;;7.43;1.50;;;4.50;98.30;;;;;;5045822;28;20029;-77
2021/12/04 06:49:44;;;;;;;4.45;0.63;;;4.60;98.40;;;;;;5047382;28;20041;-77
2021/12/04 06:52:15;;;;;;;5.50;1.13;;;4.50;98.40;;;;;;5029513;28;20479;-76
2021/12/04 06:54:49;;;;;;;5.10;0.80;;;4.50;98.40;;;;;;5048184;28;20044;-76
2021/12/04 06:57:16;;;;;;;7.35;1.02;;;4.50;98.40;;;;;;5050951;28;20017;-76
2021/12/04 06:59:45;;;;;;;3.10;0.22;;;4.50;98.50;;;;;;5049460;28;20032;-77
2021/12/04 07:02:10;;;;;;;7.32;1.23;;;4.50;98.50;;;;;;5050960;28;20063;-77
2021/12/04 07:04:37;;;;;;;7.88;1.58;;;4.50;98.50;;;;;;5049435;28;20078;-76
2021/12/04 07:07:05;;;;;;;9.32;1.25;;;4.50;98.50;;;;;;5051082;28;20112;-76
2021/12/04 07:09:31;;;;;;;4.28;0.90;;;4.50;98.50;;;;;;5049361;28;20033;-76
2021/12/04 07:11:59;;;;;;;;;;;4.50;98.60;;;;;;5051062;28;20044;-77
2021/12/04 07:14:25;;;;;;;6.38;0.88;;;4.50;98.60;;;;;;5049312;28;20423;-76
2021/12/04 07:16:51;;;;;;;6.95;1.15;;;4.50;98.60;;;;;;5049302;28;20132;-76
2021/12/04 07:19:17;;;;;;;8.60;0.98;;;4.60;98.60;;;;;;5049267;28;20179;-76
2021/12/04 07:21:45;;;;;;;5.93;0.60;;;4.60;98.60;;;;;;5050479;28;20489;-76
2021/12/04 07:24:11;;;;;;;9.13;0.95;;;4.60;98.70;;;;;;5050457;28;20383;-77
2021/12/04 07:26:36;;;;;;;11.10;0.80;;;4.60;98.70;;;;;;5048925;28;20037;-76
2021/12/04 07:29:03;;;;;;;7.25;1.00;;;4.60;98.60;;;;;;5050263;28;20029;-76
2021/12/04 07:31:29;;;;;;;8.98;1.63;;;4.60;98.50;;;;;;5050147;28;20017;-76
2021/12/04 07:33:55;;;;;;;8.13;0.80;;;4.60;98.50;;;;;;5048773;28;20048;-76
2021/12/04 07:36:22;;;;;;;3.33;0.70;;;4.50;98.50;;;;;;5031990;28;20029;-77
2021/12/04 07:38:48;;;;;;;3.92;0.65;;;4.50;98.50;;;;;;5050103;28;20033;-76
2021/12/04 07:41:14;;;;;;;7.57;1.70;;;4.40;98.50;;;;;;5050065;28;20025;-76
2021/12/04 07:43:40;;;;;;;2.83;0.73;;;4.40;98.50;;;;;;5048684;28;20040;-75
2021/12/04 07:46:06;;;;;;;7.10;1.33;;;4.30;98.50;;;;;;5048485;28;20028;-76
2021/12/04 07:48:31;;;;;;;3.50;0.98;;;4.40;98.60;;;;;;5048579;28;20567;-76
2021/12/04 07:51:01;;;;;;;4.18;1.08;;;4.30;98.50;;;;;;5048397;28;20117;-76
2021/12/04 07:53:27;;;;;;;2.63;0.80;;;4.30;98.60;;;;;;5049700;28;20364;-75
2021/12/04 07:55:52;;;;;;;4.40;0.57;;;4.30;98.60;;;;;;5048343;28;20075;-75
2021/12/04 07:58:18;;;;;;;6.55;1.58;;;4.30;98.60;;;;;;5031595;28;20041;-76
2021/12/04 08:00:44;;;;;;;6.03;0.95;;;4.20;98.60;;;;;;5048287;28;20025;-75
2021/12/04 08:03:10;;;;;;;8.60;1.38;;;4.20;98.70;;;;;;5049429;28;20462;-71
2021/12/04 08:05:36;;;;;;;7.40;1.23;;;4.20;98.70;;;;;;5049287;28;20103;-75
2021/12/04 08:08:02;;;;;;;2.08;1.02;;;4.20;98.70;;;;;;5047947;28;20498;-76
2021/12/04 08:10:29;;;;;;;7.00;1.40;;;4.20;98.70;;;;;;5049381;28;20029;-75
2021/12/04 08:12:55;;;;;;;11.15;1.58;;;4.20;98.80;;;;;;5048190;28;20040;-76
2021/12/04 08:15:21;;;;;;;5.70;0.82;;;4.30;98.90;;;;;;5046638;28;20016;-76
2021/12/04 08:17:46;;;;;;;4.50;1.73;;;4.30;98.90;;;;;;5048185;28;20044;-75
2021/12/04 08:20:14;;;;;;;6.22;1.23;;;4.40;99.00;;;;;;5047948;28;20733;-76
2021/12/04 08:22:41;;;;;;;4.53;0.90;;;4.50;99.00;;;;;;5047698;28;20043;-76
2021/12/04 08:25:08;;;;;;;7.25;1.15;;;4.50;98.90;;;;;;5048991;28;20037;-75
2021/12/04 08:27:34;;;;;;;11.27;1.75;;;4.50;98.80;;;;;;5047376;28;20037;-77
2021/12/04 08:30:01;;;;;;;14.50;1.27;;;4.60;98.80;;;;;;5047527;28;20091;-76
2021/12/04 08:32:26;;;;;;;9.55;0.88;;;4.50;98.70;;;;;;5048825;28;20029;-76
2021/12/04 08:34:52;;;;;;;8.50;1.60;;;4.60;98.70;;;;;;5048721;28;20036;-76
2021/12/04 08:37:18;;;;;;;6.22;1.73;;;4.50;98.70;;;;;;5014152;28;20116;-76
2021/12/04 08:39:44;;;;;;;3.38;1.40;;;4.50;98.70;;;;;;5048431;28;20017;-77
2021/12/04 08:42:11;;;;;;;8.15;1.40;;;4.50;98.80;;;;;;5047343;28;20021;-76
2021/12/04 08:44:38;;;;;;;4.90;1.05;;;4.60;98.80;;;;;;5048503;28;20043;-77
2021/12/04 08:47:04;;;;;;;4.43;0.93;;;4.60;98.70;;;;;;5048341;28;20034;-76
2021/12/04 08:49:32;;;;;;;5.40;1.90;;;4.60;98.80;;;;;;5048524;28;20025;-76
2021/12/04 08:51:58;;;;;;;4.65;0.93;;;4.70;98.80;;;;;;5047104;28;20033;-76
2021/12/04 08:54:24;;;;;;;;;;;4.70;98.80;;;;;;5048569;28;20025;-76
2021/12/04 08:56:50;;;;;;;5.53;1.52;;;4.70;98.90;;;;;;5047895;28;19909;-76
2021/12/04 08:59:15;;;;;;;12.20;2.28;;;4.80;99.00;;;;;;5046769;28;20109;-76
2021/12/04 09:01:42;;;;;;;10.75;1.10;;;4.90;99.10;;;;;;5047737;28;20308;-78
2021/12/04 09:04:13;;;;;;;7.13;1.00;;;5.10;99.20;;;;;;5047984;28;20021;-76
2021/12/04 09:06:39;;;;;;;7.82;1.23;;;5.30;99.30;;;;;;5048141;28;20024;-76
2021/12/04 09:09:07;;;;;;;8.80;1.13;;;5.50;99.00;;;;;;5048077;28;20061;-77
2021/12/04 09:11:41;;;;;;;9.27;1.35;;;5.60;98.70;;;;;;5048113;28;20347;-77
2021/12/04 09:14:07;;;;;;;4.53;1.25;;;5.60;98.50;;;;;;5047877;28;20021;-76
2021/12/04 09:16:34;;;;;;;7.53;1.40;;;5.50;98.40;;;;;;5045388;28;20559;-77
2021/12/04 09:18:59;;;;;;;;;;;5.50;98.30;;;;;;5046919;28;20406;-76
2021/12/04 09:21:27;;;;;;;8.68;1.63;;;5.40;98.30;;;;;;5047878;28;19920;-76
2021/12/04 09:24:03;;;;;;;2.05;0.70;;;5.40;98.30;;;;;;5048167;28;20063;-76
2021/12/04 09:26:56;;;;;;;5.63;1.52;;;5.30;98.20;;;;;;5047812;28;20496;-76
2021/12/04 10:33:44;;;;;;;9.25;1.70;;;11.90;94.90;;;;;;5043441;28;20106;-77
2021/12/04 10:36:11;;;;;;;9.90;2.03;;;12.10;94.60;;;;;;5039341;28;20021;-77
2021/12/04 10:38:44;;;;;;;6.35;1.35;;;12.30;94.40;;;;;;5041533;28;20132;-77
2021/12/04 10:41:15;;;;;;;5.50;1.80;;;12.60;94.10;;;;;;5034334;28;20021;-78
2021/12/04 10:43:42;;;;;;;10.73;1.50;;;12.90;93.70;;;;;;5040179;28;20074;-78
2021/12/04 10:46:16;;;;;;;;;;;13.20;93.70;;;;;;5023044;28;20037;-77
2021/12/04 10:48:51;;;;;;;9.18;1.90;;;13.70;93.10;;;;;;5045031;28;19905;-77
2021/12/04 10:51:50;;;;;;;7.18;1.40;;;13.90;92.70;;;;;;5045914;28;20025;-76
2021/12/04 10:54:24;;;;;;;4.30;1.23;;;13.70;91.20;;;;;;5039984;28;20032;-76
2021/12/04 11:02:47;;;;;;;8.75;1.67;;;12.90;90.70;;;;;;5035058;28;20124;-78
2021/12/04 11:05:51;;;;;;;7.15;1.65;;;12.50;89.10;;;;;;5030911;28;20040;-75
2021/12/04 11:48:44;;;;;;;8.48;1.80;;;13.30;88.30;;;;;;5030455;28;20061;-77
2021/12/04 11:51:21;;;;;;;5.18;1.40;;;13.30;88.10;;;;;;5030456;28;20086;-76
2021/12/04 11:53:49;;;;;;;5.13;1.30;;;13.40;87.30;;;;;;5031489;28;20526;-76
2021/12/04 11:56:25;;;;;;;8.95;2.08;;;13.30;86.40;;;;;;5031277;28;20068;-76
2021/12/04 11:58:52;;;;;;;6.85;2.28;;;13.10;86.20;;;;;;5031046;28;20022;-76
2021/12/04 12:01:21;;;;;;;4.90;1.85;;;13.10;86.10;;;;;;5013580;28;20370;-74
2021/12/04 12:03:52;;;;;;;8.30;1.92;;;12.70;84.20;;;;;;5031001;28;20114;-76
2021/12/04 12:06:32;;;;;;;11.95;2.55;;;12.20;83.40;;;;;;5038921;28;20025;-76
2021/12/04 12:09:12;;;;;;;8.10;2.25;;;11.80;84.00;;;;;;5050442;28;20025;-78
2021/12/04 12:11:51;;;;;;;6.85;1.80;;;11.50;84.60;;;;;;5049581;28;20630;-78
2021/12/04 12:14:34;;;;;;;8.02;1.67;;;11.20;84.70;;;;;;5049533;28;20064;-74
2021/12/04 12:17:00;;;;;;;10.50;2.20;;;11.20;86.10;;;;;;5050572;28;20428;-76
2021/12/04 12:19:38;;;;;;;3.47;1.10;;;11.50;87.20;;;;;;5050389;28;20029;-76
2021/12/04 12:38:36;;;;;;;3.75;1.20;;;11.00;84.40;;;;;;5050932;28;20443;-78
2021/12/04 12:41:08;;;;;;;2.85;0.75;;;10.60;84.00;;;;;;5050658;28;20013;-77
2021/12/04 12:43:48;;;;;;;3.83;1.17;;;10.30;83.80;;;;;;5049650;28;20127;-81
2021/12/04 12:46:15;;;;;;;3.92;1.10;;;10.00;84.10;;;;;;5050644;28;20387;-76
2021/12/04 12:48:54;;;;;;;5.03;1.13;;;9.80;84.60;;;;;;5048739;28;20024;-76
2021/12/04 12:51:26;;;;;;;6.43;1.30;;;9.60;84.70;;;;;;5047644;28;20037;-75
2021/12/04 12:53:52;;;;;;;6.03;1.35;;;9.40;85.10;;;;;;5048216;28;20048;-75
2021/12/04 12:56:21;;;;;;;5.45;1.27;;;9.30;85.50;;;;;;5048348;28;20020;-79
2021/12/04 12:58:55;;;;;;;5.75;1.20;;;9.30;85.70;;;;;;5050360;28;20029;-78
2021/12/04 13:13:40;;;;;;;5.88;1.77;;;9.30;87.30;;;;;;5049178;28;20048;-77
2021/12/04 13:16:17;;;;;;;6.68;1.15;;;9.40;87.00;;;;;;5040791;28;20129;-76
2021/12/04 13:18:56;;;;;;;5.05;1.38;;;9.30;86.80;;;;;;5033997;28;20106;-77
2021/12/04 13:21:47;;;;;;;8.35;1.80;;;9.30;86.80;;;;;;5042028;28;20016;-77
2021/12/04 13:24:18;;;;;;;8.95;1.70;;;9.20;86.90;;;;;;5052503;28;20033;-75
2021/12/04 13:26:51;;;;;;;5.32;1.25;;;9.10;87.00;;;;;;5033601;28;20036;-79
2021/12/04 13:29:21;;;;;;;6.65;1.48;;;8.90;86.90;;;;;;5070619;28;20100;-73
2021/12/04 13:31:52;;;;;;;11.20;2.35;;;8.80;87.10;;;;;;5053556;28;20016;-78
2021/12/04 13:34:23;;;;;;;11.38;2.75;;;8.60;87.40;;;;;;5037789;28;20041;-77
2021/12/04 13:36:49;;;;;;;9.05;2.97;;;8.50;87.70;;;;;;5069662;28;20032;-76
2021/12/04 13:39:16;;;;;;;8.45;1.85;;;8.50;88.50;;;;;;5052756;28;20151;-77
2021/12/04 13:41:43;;;;;;;11.88;1.88;;;8.40;88.30;;;;;;5050384;28;20067;-76
2021/12/04 13:44:12;;;;;;;8.30;1.50;;;8.50;88.60;;;;;;5066886;28;20044;-80
2021/12/04 13:46:44;;;;;;;7.80;2.38;;;8.50;89.00;;;;;;5050537;28;20515;-78
2021/12/04 13:49:11;;;;;;;6.78;1.20;;;8.70;89.20;;;;;;5050829;28;20197;-76
2021/12/04 13:51:38;;;;;;;5.45;1.45;;;8.80;88.90;;;;;;5049921;28;20039;-78
2021/12/04 13:54:04;;;;;;;7.15;1.25;;;8.80;88.60;;;;;;5065260;28;20032;-79
2021/12/04 13:56:32;;;;;;;10.27;1.20;;;8.80;88.70;;;;;;5030154;28;20447;-77
2021/12/04 13:59:01;;;;;;;6.00;1.52;;;8.70;88.70;;;;;;5049300;28;20052;-75
2021/12/04 14:01:28;;;;;;;5.25;1.52;;;8.70;88.60;;;;;;5048681;28;20013;-78
2021/12/04 14:04:01;;;;;;;6.25;1.77;;;8.60;89.00;;;;;;5047183;28;20025;-75
2021/12/04 14:06:27;;;;;;;7.25;1.20;;;8.60;89.60;;;;;;5048759;28;20021;-76
2021/12/04 14:09:06;;;;;;;10.68;2.05;;;8.70;90.00;;;;;;5047451;28;20039;-78
2021/12/04 14:11:41;;;;;;;11.60;3.38;;;8.80;90.10;;;;;;5048920;28;20403;-74
2021/12/04 14:14:17;;;;;;;5.45;1.88;;;9.00;90.20;;;;;;5048639;28;20514;-72
2021/12/04 14:16:45;;;;;;;8.93;2.65;;;9.10;90.10;;;;;;5047234;28;20463;-76
2021/12/04 14:19:16;;;;;;;6.30;2.50;;;9.10;90.00;;;;;;5048607;28;20345;-77
2021/12/04 14:21:42;;;;;;;5.32;1.90;;;9.00;89.60;;;;;;5048675;28;20387;-75
2021/12/04 14:24:08;;;;;;;6.75;1.85;;;8.90;89.40;;;;;;5047535;28;20051;-78
2021/12/04 14:26:34;;;;;;;7.15;2.50;;;8.80;89.20;;;;;;5047623;28;20477;-77
2021/12/04 14:29:00;;;;;;;5.90;2.17;;;8.70;89.10;;;;;;5048541;28;20047;-76
2021/12/04 14:31:25;;;;;;;4.80;1.60;;;8.50;88.90;;;;;;5048491;28;20052;-78
2021/12/04 14:33:51;;;;;;;4.90;2.08;;;8.40;88.80;;;;;;5046228;28;20045;-78
2021/12/04 14:36:22;;;;;;;5.35;1.88;;;8.20;88.90;;;;;;5028959;28;20033;-76
2021/12/04 14:38:48;;;;;;;6.70;2.08;;;8.10;89.20;;;;;;5029128;28;20092;-76
2021/12/04 14:41:15;;;;;;;9.73;2.28;;;8.10;89.60;;;;;;5028868;28;20121;-78
2021/12/04 14:43:41;;;;;;;9.80;1.50;;;8.20;90.00;;;;;;5034384;28;20033;-77
2021/12/04 14:46:14;;;;;;;;;;;8.40;90.10;;;;;;5044504;28;20049;-78
2021/12/04 14:48:48;;;;;;;8.20;2.28;;;8.50;90.00;;;;;;5041557;28;19909;-76
2021/12/04 14:51:17;;;;;;;7.20;2.00;;;8.60;89.80;;;;;;5040350;28;20025;-76
2021/12/04 14:53:58;;;;;;;5.22;1.50;;;8.60;89.40;;;;;;5036663;28;20053;-76
2021/12/04 14:56:29;;;;;;;5.05;1.70;;;8.40;89.00;;;;;;5031181;28;20077;-76
2021/12/04 14:58:56;;;;;;;6.60;1.25;;;8.20;88.90;;;;;;5028534;28;20460;-77
2021/12/04 15:01:26;;;;;;;20.30;8.43;;;8.00;89.20;;;;;;5028518;28;20041;-78
2021/12/04 15:03:59;;;;;;;7.57;2.03;;;7.90;89.50;;;;;;5027322;28;20468;-76
2021/12/04 15:06:27;;;;;;;8.02;2.00;;;7.80;89.70;;;;;;5028277;28;20025;-75
2021/12/04 15:08:58;;;;;;;8.13;2.40;;;7.60;89.90;;;;;;5028061;28;20044;-75
2021/12/04 15:11:31;;;;;;;6.55;1.60;;;7.50;90.00;;;;;;5028708;28;20029;-77
2021/12/04 15:14:33;;;;;;;6.93;1.65;;;7.40;90.00;;;;;;5028411;28;20344;-76
2021/12/04 15:17:06;;;;;;;5.50;2.15;;;7.30;90.20;;;;;;5030747;28;20238;-76
2021/12/04 15:19:42;;;;;;;8.43;2.00;;;7.30;90.20;;;;;;5030944;28;20116;-77
2021/12/04 15:22:21;;;;;;;6.78;2.05;;;7.20;90.30;;;;;;5032088;28;20048;-77
2021/12/04 15:24:48;;;;;;;6.40;1.65;;;7.00;90.30;;;;;;5031542;28;20025;-74
2021/12/04 15:27:18;;;;;;;8.25;2.10;;;7.00;90.40;;;;;;5031596;28;20030;-76
2021/12/04 15:29:49;;;;;;;10.32;1.65;;;6.90;90.50;;;;;;5032386;28;20022;-75
2021/12/04 15:32:21;;;;;;;8.18;1.80;;;6.80;90.60;;;;;;5030361;28;20021;-74
2021/12/04 15:34:53;;;;;;;9.82;1.98;;;6.70;90.60;;;;;;5031778;28;20025;-75
2021/12/04 15:37:49;;;;;;;14.73;2.58;;;6.60;90.70;;;;;;5030595;28;20028;-76
2021/12/04 15:40:33;;;;;;;10.52;3.22;;;6.50;90.70;;;;;;5032221;28;20017;-74
2021/12/04 15:43:26;;;;;;;7.30;2.40;;;6.40;90.80;;;;;;5032521;28;20021;-77
2021/12/04 15:46:36;;;;;;;6.72;2.65;;;6.40;90.80;;;;;;5018826;28;20029;-76
2021/12/04 15:54:27;;;;;;;7.70;2.95;;;6.20;90.90;;;;;;5031999;28;20084;-76
2021/12/04 15:56:54;;;;;;;11.27;3.75;;;6.20;91.00;;;;;;5030547;28;20037;-76
2021/12/04 15:59:29;;;;;;;9.98;3.40;;;6.10;91.00;;;;;;5013946;28;20040;-78
2021/12/04 16:02:13;;;;;;;10.55;3.83;;;6.10;91.10;;;;;;5045035;28;20119;-78
2021/12/04 16:04:40;;;;;;;11.43;4.22;;;6.10;91.20;;;;;;5051432;28;20487;-79
2021/12/04 16:07:06;;;;;;;12.13;5.28;;;6.00;91.10;;;;;;5044935;28;20047;-77
2021/12/04 16:09:36;;;;;;;12.40;4.05;;;6.00;91.20;;;;;;5018477;28;20121;-77
2021/12/04 16:12:12;;;;;;;18.90;4.28;;;5.90;91.30;;;;;;5044589;28;20056;-77
2021/12/04 16:14:41;;;;;;;6.93;3.25;;;5.90;91.30;;;;;;5043093;28;20413;-76
2021/12/04 16:17:09;;;;;;;10.93;4.30;;;5.80;91.30;;;;;;5051052;28;20041;-79
2021/12/04 16:19:38;;;;;;;10.13;3.42;;;5.80;91.40;;;;;;5049809;28;20108;-74
2021/12/04 16:22:08;;;;;;;9.07;3.60;;;5.70;91.30;;;;;;5051431;28;20021;-77
2021/12/04 16:24:37;;;;;;;7.65;2.75;;;5.70;91.40;;;;;;5051614;28;20488;-79
2021/12/04 16:27:15;;;;;;;7.70;2.92;;;5.60;91.50;;;;;;5049474;28;20037;-79
2021/12/04 16:29:50;;;;;;;11.13;4.22;;;5.60;91.50;;;;;;5049712;28;20105;-78
2021/12/04 16:35:18;;;;;;;11.57;4.25;;;5.50;91.60;;;;;;5049746;28;20036;-78